Metar Flugplatz Niederstetten

ETHN 241620Z 34007KT 9999 FEW020 BKN060 10/05 Q1022 BLU



Temperatur Niederstetten
10 Grad Celsius

QNH Niederstetten
1022
==============================================================

TAF Niederstetten:

TAF ETHN 291027Z 2911/3002 24010KT 9999 NSW FEW240 TEMPO 2911/2916 26012G22KT 9999 NSW SCT035 BKN240



Alle Angaben ohne Gewähr